Main page
METAR-TAF:

METAR-TAF

Airports :

Curaçao, Netherlands Antilles

Curaçao International Airport

latitude: 12-12N, longitude: 068-58W, elevation: 9 m

Current weather observation

The report was made 58 minutes ago, at 16:00 UTC
Wind 10 kt from the East
Temperature 30°C
Humidity 66%
Pressure 1013 hPa
Visibility 10 km or more
Scattered clouds at a height of 2300 ft

METAR: TNCC 261600Z 08010KT 9999 SCT023 30/23 Q1013 NOSIG

Time: 12:58 (16:58 UTC)

Forecast

The report was made 7 hours and 28 minutes ago, at 09:30 UTC
Forecast valid from 26 at 12 UTC to 27 at 12 UTC
Wind 10 kt from the East/Southeast
Visibility 10 km or more
Scattered clouds at a height of 1800 ft
Probability 30% :
Temporary
from 27 at 08 UTC to 27 at 12 UTC
Visibility: 7000 m
Broken clouds at a height of 1400 ft
rain showers

TAF: TNCC 260930Z 2612/2712 11010KT 9999 SCT018 PROB30 TEMPO 2708/2712 7000 SHRA BKN014

Weather observations and forecasts of more than 4000 airports (METAR and TAF reports).

The available stations are represented by yellow and red dots on the map.

Hover mouse over dot to see the name of the station.

Then click to see weather observations and forecasts.

To change the map : click on the green buttons with a black cross to zoom in, on the green button with a dash to zoom out, or on the green arrows for adjacent maps.


METAR-TAF: